aviador You're here:

KINF Decoded Metar

in
Report Time2017-12-15 19:15:00
UTC Time2017-12-15 19:31:49
Flight Rules vfr VFR
Wind250° at 07 kt
W.Decomp.*RWY 19: 3.5 kt HW 6.1 kt RCW
W.Rank250° ranks 23
Current wind is above 250° avg. (4.7)
Visibility9999 m
Phenomena:N/A
Clouds:N/A
Expected CloudBase > 4,400 ft AGL from Temp-Dew spread
CeilingNone
Temp23°C
Dew Point12°C (50% RH)
AAT21.1°C
QNH1018 hPa
Raw Report
KINF 151915Z AUTO 25007KT 200V280 7SM CLR 23/12 A3006 RMK AO2=

Extra information for KINF:More info

Social comments